createdAt,value
2023-05-01T00:00:08.683Z,54.13
2023-05-01T00:00:24.815Z,53.98
2023-05-01T00:00:40.972Z,53.69
2023-05-01T00:00:57.143Z,53.52
2023-05-01T00:01:13.251Z,53.47
2023-05-01T00:01:29.424Z,53.97
2023-05-01T00:01:45.573Z,53.65
2023-05-01T00:02:01.682Z,53.51
2023-05-01T00:02:17.844Z,53.9
2023-05-01T00:02:34.136Z,53.53
2023-05-01T00:02:50.262Z,53.51
2023-05-01T00:03:06.333Z,53.75
2023-05-01T00:03:22.448Z,53.79
2023-05-01T00:03:50.005Z,53.42
2023-05-01T00:04:06.161Z,53.33
2023-05-01T00:04:22.160Z,53.44
2023-05-01T00:04:38.334Z,53.19
2023-05-01T00:04:54.491Z,53.25
2023-05-01T00:05:10.591Z,53.28
2023-05-01T00:05:26.728Z,53.44
2023-05-01T00:05:42.868Z,53.09
2023-05-01T00:05:59.039Z,52.54
2023-05-01T00:06:15.159Z,52.63
2023-05-01T00:06:31.333Z,52.57
2023-05-01T00:06:47.523Z,52.54
2023-05-01T00:07:03.640Z,52.69
2023-05-01T00:07:19.754Z,53.15
2023-05-01T00:07:35.875Z,53.36
2023-05-01T00:07:52.035Z,53.32
2023-05-01T00:08:08.184Z,53.71
2023-05-01T00:08:24.324Z,53.38
2023-05-01T00:08:40.463Z,52.72
2023-05-01T00:08:56.590Z,52.65
2023-05-01T00:09:12.804Z,52.8
2023-05-01T00:09:28.915Z,53.04
2023-05-01T00:09:45.048Z,53.02
2023-05-01T00:10:01.195Z,53.24
2023-05-01T00:10:17.315Z,54.21
2023-05-01T00:10:33.481Z,53.73
2023-05-01T00:10:49.612Z,54.04
2023-05-01T00:11:05.788Z,53.81
2023-05-01T00:11:21.946Z,53.54
2023-05-01T00:11:38.071Z,53.54
2023-05-01T00:11:54.214Z,53.84
2023-05-01T00:12:10.358Z,54.21
2023-05-01T00:12:26.510Z,54.28
2023-05-01T00:12:42.630Z,54.28
2023-05-01T00:12:58.811Z,54.37
2023-05-01T00:13:14.924Z,54.14
2023-05-01T00:13:31.066Z,54.03
2023-05-01T00:13:47.217Z,54.15
2023-05-01T00:14:03.384Z,54.05
2023-05-01T00:14:19.554Z,53.39
2023-05-01T00:14:35.690Z,53.02
2023-05-01T00:14:51.822Z,52.81
2023-05-01T00:15:07.950Z,52.69
2023-05-01T00:15:24.089Z,52.51
2023-05-01T00:15:40.227Z,52.89
2023-05-01T00:15:56.578Z,54.5
2023-05-01T00:16:12.638Z,54.48
2023-05-01T00:16:28.709Z,54.58
2023-05-01T00:16:44.891Z,53.5
2023-05-01T00:17:00.957Z,53.62
2023-05-01T00:17:17.111Z,53.11
2023-05-01T00:17:33.310Z,53.25
2023-05-01T00:17:49.457Z,53.28
2023-05-01T00:18:05.590Z,52.92
2023-05-01T00:18:21.699Z,53.03
2023-05-01T00:18:37.876Z,53.22
2023-05-01T00:18:54.005Z,52.48
2023-05-01T00:19:10.118Z,52.53
2023-05-01T00:19:26.310Z,52.58
2023-05-01T00:19:42.437Z,52.37
2023-05-01T00:19:58.948Z,52.06
2023-05-01T00:20:14.710Z,51.88
2023-05-01T00:20:30.884Z,51.94
2023-05-01T00:20:47.032Z,52.35
2023-05-01T00:21:03.148Z,51.98
2023-05-01T00:21:19.293Z,52.09
2023-05-01T00:21:35.480Z,52
2023-05-01T00:21:51.599Z,52.03
2023-05-01T00:22:07.720Z,52.11
2023-05-01T00:22:23.905Z,52.43
2023-05-01T00:22:40.027Z,52.02
2023-05-01T00:22:56.177Z,52.01
2023-05-01T00:23:12.327Z,51.84
2023-05-01T00:23:28.457Z,52.03
2023-05-01T00:23:44.678Z,51.64
2023-05-01T00:24:00.770Z,51.6
2023-05-01T00:24:16.910Z,51.89
2023-05-01T00:24:33.069Z,52.68
2023-05-01T00:24:49.190Z,52.95
2023-05-01T00:25:05.348Z,52.67
2023-05-01T00:25:21.507Z,52.41
2023-05-01T00:25:37.657Z,52.45
2023-05-01T00:25:53.759Z,52.47
2023-05-01T00:26:09.927Z,52.56
2023-05-01T00:26:26.084Z,52.32
2023-05-01T00:26:42.214Z,52.99
2023-05-01T00:26:58.342Z,52.75
2023-05-01T00:27:14.496Z,52.86
2023-05-01T00:27:30.627Z,52.84
2023-05-01T00:27:46.791Z,52.74
2023-05-01T00:28:02.942Z,52.62
2023-05-01T00:28:19.077Z,52.66
2023-05-01T00:28:35.218Z,52.51
2023-05-01T00:28:51.376Z,52.47
2023-05-01T00:29:07.530Z,52.91
2023-05-01T00:29:23.652Z,53
2023-05-01T00:29:39.831Z,53.4
2023-05-01T00:29:56.226Z,53.02
2023-05-01T00:30:12.097Z,52.74
2023-05-01T00:30:28.246Z,52.69
2023-05-01T00:30:44.406Z,52.8
2023-05-01T00:31:00.549Z,54.01
2023-05-01T00:31:16.683Z,54.77
2023-05-01T00:31:32.943Z,53.86
2023-05-01T00:31:49.056Z,53.53
2023-05-01T00:32:05.243Z,53.2
2023-05-01T00:32:21.369Z,53.53
2023-05-01T00:32:37.428Z,53.26
2023-05-01T00:32:53.593Z,53.12
2023-05-01T00:33:09.721Z,52.95
2023-05-01T00:33:25.838Z,54.21
2023-05-01T00:33:42.031Z,53.94
2023-05-01T00:33:58.156Z,55.35
2023-05-01T00:34:14.290Z,53.85
2023-05-01T00:34:30.435Z,53.76
2023-05-01T00:34:46.582Z,53.62
2023-05-01T00:35:02.718Z,54.05
2023-05-01T00:35:18.863Z,53.67
2023-05-01T00:35:35.034Z,53.93
2023-05-01T00:35:51.169Z,53.28
2023-05-01T00:36:07.323Z,53.11
2023-05-01T00:36:23.443Z,52.97
2023-05-01T00:36:39.579Z,52.97
2023-05-01T00:36:55.760Z,53.07
2023-05-01T00:37:11.903Z,53
2023-05-01T00:37:28.051Z,53.01
2023-05-01T00:37:44.183Z,53.82
2023-05-01T00:38:00.359Z,54.37
2023-05-01T00:38:16.651Z,54.82
2023-05-01T00:38:32.600Z,54.49
2023-05-01T00:38:48.795Z,54.48
2023-05-01T00:39:04.884Z,54.76
2023-05-01T00:39:21.048Z,55.19
2023-05-01T00:39:37.195Z,55.46
2023-05-01T00:39:53.413Z,54.12
2023-05-01T00:40:09.484Z,53.85
2023-05-01T00:40:25.642Z,53.11
2023-05-01T00:40:41.826Z,53.45
2023-05-01T00:40:57.940Z,53.38
2023-05-01T00:41:14.137Z,53.13
2023-05-01T00:41:30.217Z,53.04
2023-05-01T00:41:46.356Z,52.99
2023-05-01T00:42:02.527Z,52.69
2023-05-01T00:42:18.684Z,52.48
2023-05-01T00:42:34.783Z,52.52
2023-05-01T00:42:50.944Z,52.61
2023-05-01T00:43:07.089Z,53.01
2023-05-01T00:43:23.240Z,52.94
2023-05-01T00:43:39.377Z,53.13
2023-05-01T00:43:55.536Z,52.87
2023-05-01T00:44:11.683Z,52.52
2023-05-01T00:44:27.836Z,53.06
2023-05-01T00:44:43.940Z,53.37
2023-05-01T00:45:00.149Z,53.27
2023-05-01T00:45:16.255Z,53.46
2023-05-01T00:45:32.461Z,53.58
2023-05-01T00:45:48.569Z,53.83
2023-05-01T00:46:04.796Z,53.17
2023-05-01T00:46:20.866Z,52.82
2023-05-01T00:46:36.976Z,53.15
2023-05-01T00:46:53.166Z,53.19
2023-05-01T00:47:09.248Z,54.03
2023-05-01T00:47:25.476Z,53.61
2023-05-01T00:47:41.595Z,53.16
2023-05-01T00:47:57.770Z,53.19
2023-05-01T00:48:14.015Z,53.2
2023-05-01T00:48:30.002Z,53.34
2023-05-01T00:48:46.163Z,53.18
2023-05-01T00:49:02.285Z,53.56
2023-05-01T00:49:18.438Z,53.41
2023-05-01T00:49:34.593Z,53.5
2023-05-01T00:49:50.751Z,53.66
2023-05-01T00:50:06.882Z,53.62
2023-05-01T00:50:23.033Z,53.39
2023-05-01T00:50:39.150Z,53.33
2023-05-01T00:50:55.338Z,53.27
2023-05-01T00:51:11.476Z,53.56
2023-05-01T00:51:27.613Z,53.61
2023-05-01T00:51:43.746Z,53.75
2023-05-01T00:51:59.883Z,53.94
2023-05-01T00:52:16.054Z,53.58
2023-05-01T00:52:32.203Z,54.26
2023-05-01T00:52:48.341Z,53.81
2023-05-01T00:53:04.504Z,54.18
2023-05-01T00:53:20.623Z,54.11
2023-05-01T00:53:36.788Z,53.99
2023-05-01T00:53:52.906Z,54.3
2023-05-01T00:54:09.080Z,54.36
2023-05-01T00:54:25.256Z,54.72
2023-05-01T00:54:41.349Z,54.24
2023-05-01T00:54:57.477Z,54.1
2023-05-01T00:55:13.643Z,54.17
2023-05-01T00:55:29.774Z,54.2
2023-05-01T00:55:45.938Z,53.83
2023-05-01T00:56:02.092Z,54.74
2023-05-01T00:56:18.245Z,54.63
2023-05-01T00:56:34.349Z,54
2023-05-01T00:56:50.504Z,54.3
2023-05-01T00:57:06.654Z,54.31
2023-05-01T00:57:22.783Z,53.99
2023-05-01T00:57:50.254Z,53.94
2023-05-01T00:58:06.769Z,53.81
2023-05-01T00:58:22.567Z,54.18
2023-05-01T00:58:38.684Z,54.2
2023-05-01T00:58:54.799Z,53.96
2023-05-01T00:59:10.950Z,53.73
2023-05-01T00:59:27.123Z,53.98
2023-05-01T00:59:43.244Z,53.93
2023-05-01T00:59:59.382Z,53.92
2023-05-01T01:00:15.550Z,54.49
2023-05-01T01:00:31.681Z,53.88
2023-05-01T01:00:47.890Z,53.65
2023-05-01T01:01:04.012Z,53.86
2023-05-01T01:01:20.155Z,53.78
2023-05-01T01:01:36.298Z,53.44
2023-05-01T01:01:53.272Z,53.37
2023-05-01T01:02:08.592Z,53.37
2023-05-01T01:02:24.732Z,53.28
2023-05-01T01:02:40.860Z,53.17
2023-05-01T01:02:57.022Z,53.2
2023-05-01T01:03:13.143Z,53.23
2023-05-01T01:03:29.288Z,53.4
2023-05-01T01:03:45.459Z,53.26
2023-05-01T01:04:01.575Z,53.15
2023-05-01T01:04:17.770Z,53.19
2023-05-01T01:04:33.955Z,53.37
2023-05-01T01:04:50.046Z,53.52
2023-05-01T01:05:06.175Z,53.38
2023-05-01T01:05:22.312Z,53.54
2023-05-01T01:05:38.436Z,53.73
2023-05-01T01:05:54.584Z,53.93
2023-05-01T01:06:10.806Z,54.28
2023-05-01T01:06:26.913Z,54.09
2023-05-01T01:06:43.157Z,54.28
2023-05-01T01:06:59.190Z,54.4
2023-05-01T01:07:15.316Z,54.2
2023-05-01T01:07:31.451Z,53.9
2023-05-01T01:07:47.607Z,54.05
2023-05-01T01:08:03.781Z,54.17
2023-05-01T01:08:19.920Z,54.15
2023-05-01T01:08:36.095Z,54.03
2023-05-01T01:08:52.230Z,54.36
2023-05-01T01:09:08.356Z,54.67
2023-05-01T01:09:24.495Z,54.41
2023-05-01T01:09:40.632Z,54.11
2023-05-01T01:09:57.004Z,54.61
2023-05-01T01:10:12.918Z,54.69
2023-05-01T01:10:29.064Z,54.56
2023-05-01T01:10:45.224Z,55.08
2023-05-01T01:11:01.382Z,54.5
2023-05-01T01:11:17.510Z,54.92
2023-05-01T01:11:33.673Z,54.75
2023-05-01T01:11:49.794Z,54.72
2023-05-01T01:12:05.939Z,54.46
2023-05-01T01:12:22.074Z,54.42
2023-05-01T01:12:38.211Z,54.63
2023-05-01T01:12:54.367Z,54.73
2023-05-01T01:13:10.546Z,54.23
2023-05-01T01:13:26.701Z,54.06
2023-05-01T01:13:42.788Z,54.19
2023-05-01T01:13:58.985Z,54.16
2023-05-01T01:14:15.109Z,54.32
2023-05-01T01:14:31.351Z,54.54
2023-05-01T01:14:47.497Z,54.51
2023-05-01T01:15:03.563Z,54.63
2023-05-01T01:15:19.679Z,54.28
2023-05-01T01:15:35.834Z,54.24
2023-05-01T01:15:51.964Z,54.58
2023-05-01T01:16:08.121Z,54.47
2023-05-01T01:16:24.317Z,54.34
2023-05-01T01:16:40.506Z,54.32
2023-05-01T01:16:56.618Z,54.26
2023-05-01T01:17:12.961Z,54.29
2023-05-01T01:17:28.872Z,54.61
2023-05-01T01:17:45.030Z,54.39
2023-05-01T01:18:01.232Z,54.75
2023-05-01T01:18:17.283Z,54.15
2023-05-01T01:18:33.456Z,54.17
2023-05-01T01:18:49.573Z,54.03
2023-05-01T01:19:05.737Z,54.54
2023-05-01T01:19:21.859Z,54.61
2023-05-01T01:19:38.029Z,54.6
2023-05-01T01:19:54.454Z,54.63
2023-05-01T01:20:10.288Z,54.98
2023-05-01T01:20:26.455Z,54.29
2023-05-01T01:20:42.661Z,54.59
2023-05-01T01:20:58.747Z,54.94
2023-05-01T01:21:14.906Z,54.57
2023-05-01T01:21:31.022Z,54.97
2023-05-01T01:21:47.175Z,54.94
2023-05-01T01:22:03.304Z,54.73
2023-05-01T01:22:19.477Z,54.34
2023-05-01T01:22:35.641Z,54.19
2023-05-01T01:22:51.784Z,54.15
2023-05-01T01:23:07.902Z,54.4
2023-05-01T01:23:24.059Z,54.53
2023-05-01T01:23:40.260Z,54.93
2023-05-01T01:23:56.335Z,54.62
2023-05-01T01:24:12.480Z,54.32
2023-05-01T01:24:28.666Z,54.92
2023-05-01T01:24:44.777Z,54.9
2023-05-01T01:25:00.958Z,54.95
2023-05-01T01:25:17.108Z,55.41
2023-05-01T01:25:33.220Z,55.49
2023-05-01T01:25:49.352Z,55.22
2023-05-01T01:26:05.527Z,54.74
2023-05-01T01:26:21.645Z,54.82
2023-05-01T01:26:37.783Z,54.92
2023-05-01T01:26:53.930Z,54.67
2023-05-01T01:27:10.076Z,54.68
2023-05-01T01:27:26.250Z,54.38
2023-05-01T01:27:42.386Z,54.44
2023-05-01T01:27:58.527Z,54.44
2023-05-01T01:28:14.705Z,54.57
2023-05-01T01:28:30.805Z,54.46
2023-05-01T01:28:46.948Z,54.72
2023-05-01T01:29:03.102Z,54.75
2023-05-01T01:29:19.252Z,54.81
2023-05-01T01:29:35.424Z,54.6
2023-05-01T01:29:51.575Z,54.68
2023-05-01T01:30:07.739Z,54.91
2023-05-01T01:30:23.856Z,54.46
2023-05-01T01:30:40.052Z,54.18
2023-05-01T01:30:56.135Z,54.45
2023-05-01T01:31:12.404Z,54.18
2023-05-01T01:31:28.466Z,54.02
2023-05-01T01:31:44.609Z,54.49
2023-05-01T01:32:00.726Z,54.34
2023-05-01T01:32:16.841Z,54.18
2023-05-01T01:32:32.988Z,54.14
2023-05-01T01:32:49.168Z,54.17
2023-05-01T01:33:05.335Z,54.07
2023-05-01T01:33:21.437Z,54.05
2023-05-01T01:33:37.592Z,54.06
2023-05-01T01:33:53.716Z,54.22
2023-05-01T01:34:09.866Z,54.46
2023-05-01T01:34:26.016Z,54.21
2023-05-01T01:34:42.215Z,54.06
2023-05-01T01:34:58.323Z,53.94
2023-05-01T01:35:14.471Z,54.7
2023-05-01T01:35:30.617Z,54.83
2023-05-01T01:35:46.746Z,55.07
2023-05-01T01:36:02.882Z,55.49
2023-05-01T01:36:19.060Z,55.33
2023-05-01T01:36:35.178Z,55.16
2023-05-01T01:36:51.360Z,55.04
2023-05-01T01:37:07.454Z,54.95
2023-05-01T01:37:23.613Z,54.66
2023-05-01T01:37:39.754Z,54.53
2023-05-01T01:37:55.945Z,54.49
2023-05-01T01:38:12.085Z,54.39
2023-05-01T01:38:28.203Z,54.38
2023-05-01T01:38:44.352Z,54.38
2023-05-01T01:39:00.492Z,54.5
2023-05-01T01:39:16.635Z,54.53
2023-05-01T01:39:32.783Z,54.4
2023-05-01T01:39:48.938Z,54.15
2023-05-01T01:40:05.113Z,54.65
2023-05-01T01:40:21.254Z,54.67
2023-05-01T01:40:37.364Z,54.66
2023-05-01T01:40:53.667Z,54.29
2023-05-01T01:41:09.655Z,54.38
2023-05-01T01:41:25.783Z,54.4
2023-05-01T01:41:41.947Z,54.62
2023-05-01T01:41:58.087Z,54.14
2023-05-01T01:42:14.238Z,54.31
2023-05-01T01:42:30.388Z,54.75
2023-05-01T01:42:46.536Z,54.76
2023-05-01T01:43:02.674Z,55
2023-05-01T01:43:18.917Z,55.28
2023-05-01T01:43:34.976Z,54.86
2023-05-01T01:43:51.130Z,55.01
2023-05-01T01:44:07.255Z,54.96
2023-05-01T01:44:23.428Z,55.1
2023-05-01T01:44:39.547Z,54.68
2023-05-01T01:44:55.698Z,54.54
2023-05-01T01:45:11.839Z,54.64
2023-05-01T01:45:27.995Z,54.97
2023-05-01T01:45:44.122Z,54.73
2023-05-01T01:46:00.337Z,54.32
2023-05-01T01:46:16.423Z,54.26
2023-05-01T01:46:32.560Z,54.38
2023-05-01T01:46:48.734Z,54.33
2023-05-01T01:47:04.859Z,54.16
2023-05-01T01:47:20.995Z,54.35
2023-05-01T01:47:37.204Z,54.71
2023-05-01T01:47:53.323Z,54.48
2023-05-01T01:48:09.496Z,54.18
2023-05-01T01:48:25.578Z,54.02
2023-05-01T01:48:41.746Z,53.74
2023-05-01T01:48:57.859Z,53.99
2023-05-01T01:49:14.036Z,53.95
2023-05-01T01:49:30.164Z,53.98
2023-05-01T01:49:46.318Z,54
2023-05-01T01:50:02.453Z,54.3
2023-05-01T01:50:18.597Z,54.77
2023-05-01T01:50:34.735Z,54.73
2023-05-01T01:50:50.899Z,54.61
2023-05-01T01:51:07.060Z,54.38
2023-05-01T01:51:23.221Z,54.32
2023-05-01T01:51:50.627Z,54.48
2023-05-01T01:52:06.764Z,54.45
2023-05-01T01:52:22.902Z,54.31
2023-05-01T01:52:39.073Z,54.39
2023-05-01T01:52:55.248Z,54.57
2023-05-01T01:53:11.333Z,54.7
2023-05-01T01:53:27.510Z,54.38
2023-05-01T01:53:43.647Z,54.33
2023-05-01T01:53:59.811Z,54.16
2023-05-01T01:54:15.912Z,53.94
2023-05-01T01:54:32.088Z,54.13
2023-05-01T01:54:48.215Z,54.16
2023-05-01T01:55:04.351Z,54.33
2023-05-01T01:55:20.506Z,54.41
2023-05-01T01:55:36.641Z,54.19
2023-05-01T01:55:52.813Z,54.11
2023-05-01T01:56:08.980Z,54.18
2023-05-01T01:56:25.089Z,54.16
2023-05-01T01:56:41.227Z,54.01
2023-05-01T01:56:57.472Z,54.01
2023-05-01T01:57:13.528Z,54.07
2023-05-01T01:57:29.670Z,54.04
2023-05-01T01:57:45.836Z,54.09
2023-05-01T01:58:01.967Z,54.3
2023-05-01T01:58:18.128Z,54.58
2023-05-01T01:58:50.396Z,54.03
2023-05-01T01:59:06.575Z,53.8
2023-05-01T01:59:22.689Z,53.81
2023-05-01T01:59:38.847Z,53.84
2023-05-01T01:59:55.335Z,53.93
2023-05-01T02:00:11.224Z,54.48
2023-05-01T02:00:27.257Z,54.29
2023-05-01T02:00:43.418Z,54.46
2023-05-01T02:00:59.566Z,54.15
2023-05-01T02:01:15.795Z,54.51
2023-05-01T02:01:31.853Z,54.66
2023-05-01T02:01:48.166Z,54.36
2023-05-01T02:02:04.319Z,54.24
2023-05-01T02:02:20.285Z,54.13
2023-05-01T02:02:36.520Z,54.36
2023-05-01T02:02:52.789Z,54.14
2023-05-01T02:03:08.790Z,53.99
2023-05-01T02:03:24.958Z,55.11
2023-05-01T02:03:41.152Z,54.55
2023-05-01T02:03:57.292Z,54.41
2023-05-01T02:04:13.400Z,54.42
2023-05-01T02:04:29.460Z,54.55
2023-05-01T02:04:45.618Z,54.71
2023-05-01T02:05:01.833Z,54.61
2023-05-01T02:05:17.920Z,54.17
2023-05-01T02:05:34.056Z,54.12
2023-05-01T02:05:50.188Z,54.22
2023-05-01T02:06:06.400Z,54.25
2023-05-01T02:06:22.490Z,54.26
2023-05-01T02:06:38.672Z,54.27
2023-05-01T02:06:54.765Z,54.88
2023-05-01T02:07:10.926Z,54.5
2023-05-01T02:07:27.069Z,54.56
2023-05-01T02:07:43.191Z,54.52
2023-05-01T02:07:59.341Z,54.41
2023-05-01T02:08:15.509Z,54.31
2023-05-01T02:08:31.670Z,54.37
2023-05-01T02:08:47.780Z,54.86
2023-05-01T02:09:03.941Z,55.13
2023-05-01T02:09:20.052Z,54.86
2023-05-01T02:09:36.260Z,54.71
2023-05-01T02:09:52.391Z,54.55
2023-05-01T02:10:08.519Z,54.48
2023-05-01T02:10:24.678Z,54.52
2023-05-01T02:10:40.786Z,54.6
2023-05-01T02:10:57.404Z,54.64
2023-05-01T02:11:13.094Z,54.84
2023-05-01T02:11:29.258Z,54.74
2023-05-01T02:11:45.372Z,54.83
2023-05-01T02:12:01.583Z,54.79
2023-05-01T02:12:17.693Z,54.78
2023-05-01T02:12:33.829Z,54.99
2023-05-01T02:12:49.979Z,55.16
2023-05-01T02:13:06.133Z,55.07
2023-05-01T02:13:22.246Z,54.95
2023-05-01T02:13:38.404Z,55.03
2023-05-01T02:13:54.552Z,55.02
2023-05-01T02:14:10.726Z,55.09
2023-05-01T02:14:26.860Z,55.04
2023-05-01T02:14:43.002Z,55.33
2023-05-01T02:14:59.126Z,55.26
2023-05-01T02:15:15.310Z,55.02
2023-05-01T02:15:31.471Z,55.4
2023-05-01T02:15:47.600Z,55.43
2023-05-01T02:16:03.760Z,55.26
2023-05-01T02:16:19.888Z,55.31
2023-05-01T02:16:36.116Z,55.48
2023-05-01T02:16:52.147Z,55.36
2023-05-01T02:17:08.328Z,55.39
2023-05-01T02:17:24.499Z,55.66
2023-05-01T02:17:40.651Z,55.28
2023-05-01T02:17:56.745Z,55.28
2023-05-01T02:18:12.871Z,55.41
2023-05-01T02:18:29.012Z,55.43
2023-05-01T02:18:45.171Z,55.29
2023-05-01T02:19:01.309Z,55.23
2023-05-01T02:19:17.489Z,55.33
2023-05-01T02:19:33.650Z,55.56
2023-05-01T02:19:49.747Z,55.55
2023-05-01T02:20:05.955Z,55.54
2023-05-01T02:20:22.037Z,55.44
2023-05-01T02:20:38.197Z,55.83
2023-05-01T02:20:54.330Z,55.69
2023-05-01T02:21:10.482Z,55.66
2023-05-01T02:21:26.627Z,55.83
2023-05-01T02:21:42.773Z,56.29
2023-05-01T02:21:58.942Z,55.92
2023-05-01T02:22:15.081Z,55.68
2023-05-01T02:22:31.206Z,55.5
2023-05-01T02:22:47.400Z,55.73
2023-05-01T02:23:03.492Z,55.97
2023-05-01T02:23:19.644Z,55.74
2023-05-01T02:23:35.776Z,55.52
2023-05-01T02:23:51.934Z,55.61
2023-05-01T02:24:08.096Z,55.49
2023-05-01T02:24:24.234Z,55.56
2023-05-01T02:24:40.377Z,55.57
2023-05-01T02:24:56.519Z,55.57
2023-05-01T02:25:12.685Z,55.42
2023-05-01T02:25:29.638Z,55.22
2023-05-01T02:25:44.950Z,55.37
2023-05-01T02:26:01.138Z,55.68
2023-05-01T02:26:17.257Z,55.32
2023-05-01T02:26:33.391Z,55.18
2023-05-01T02:26:49.526Z,55.42
2023-05-01T02:27:05.676Z,55.61
2023-05-01T02:27:21.844Z,55.24
2023-05-01T02:27:37.959Z,55.07
2023-05-01T02:27:54.125Z,55.09
2023-05-01T02:28:10.284Z,55.11
2023-05-01T02:28:26.399Z,55.23
2023-05-01T02:28:42.533Z,55.25
2023-05-01T02:28:58.697Z,55.35
2023-05-01T02:29:14.842Z,55.35
2023-05-01T02:29:31.032Z,55.32
2023-05-01T02:29:47.145Z,55.72
2023-05-01T02:30:03.293Z,55.66
2023-05-01T02:30:19.445Z,55.27
2023-05-01T02:30:35.580Z,55.14
2023-05-01T02:30:51.716Z,55.08
2023-05-01T02:31:07.871Z,54.96
2023-05-01T02:31:24.033Z,54.97
2023-05-01T02:31:40.238Z,55.37
2023-05-01T02:31:56.363Z,55.33
2023-05-01T02:32:12.447Z,55.85
2023-05-01T02:32:28.717Z,55.79
2023-05-01T02:32:44.966Z,55.66
2023-05-01T02:33:01.010Z,55.61
2023-05-01T02:33:17.007Z,55.87
2023-05-01T02:33:33.167Z,55.84
2023-05-01T02:33:49.314Z,55.6
2023-05-01T02:34:05.476Z,55.49
2023-05-01T02:34:21.634Z,55.61
2023-05-01T02:34:37.780Z,55.59
2023-05-01T02:34:53.893Z,55.5
2023-05-01T02:35:10.031Z,55.82
2023-05-01T02:35:26.174Z,56.02
2023-05-01T02:35:42.374Z,56.16
2023-05-01T02:35:58.488Z,55.8
2023-05-01T02:36:14.633Z,55.83
2023-05-01T02:36:30.770Z,55.84
2023-05-01T02:36:46.939Z,55.55
2023-05-01T02:37:03.096Z,55.55
2023-05-01T02:37:19.216Z,55.38
2023-05-01T02:37:35.350Z,55.54
2023-05-01T02:37:51.536Z,55.58
2023-05-01T02:38:07.639Z,55.82
2023-05-01T02:38:23.790Z,55.76
2023-05-01T02:38:39.943Z,55.84
2023-05-01T02:38:56.089Z,55.46
2023-05-01T02:39:12.227Z,55.24
2023-05-01T02:39:28.381Z,55.24
2023-05-01T02:39:44.554Z,55.42
2023-05-01T02:40:00.698Z,55.4
2023-05-01T02:40:16.884Z,55.46
2023-05-01T02:40:32.948Z,55.49
2023-05-01T02:40:49.099Z,55.47
2023-05-01T02:41:05.247Z,55.46
2023-05-01T02:41:21.377Z,55.46
2023-05-01T02:41:37.560Z,55.54
2023-05-01T02:41:53.677Z,55.52
2023-05-01T02:42:09.826Z,55.67
2023-05-01T02:42:25.991Z,55.86
2023-05-01T02:42:42.148Z,56.07
2023-05-01T02:42:58.263Z,55.94
2023-05-01T02:43:14.436Z,55.91
2023-05-01T02:43:30.561Z,55.87
2023-05-01T02:43:46.714Z,55.9
2023-05-01T02:44:02.833Z,55.73
2023-05-01T02:44:18.998Z,55.73
2023-05-01T02:44:35.144Z,55.73
2023-05-01T02:44:51.289Z,55.74
2023-05-01T02:45:07.456Z,55.87
2023-05-01T02:45:23.606Z,55.84
2023-05-01T02:45:51.055Z,55.66
2023-05-01T02:46:07.189Z,55.46
2023-05-01T02:46:23.446Z,56.34
2023-05-01T02:46:39.513Z,56.44
2023-05-01T02:46:55.649Z,56.46
2023-05-01T02:47:11.816Z,56.29
2023-05-01T02:47:28.001Z,55.83
2023-05-01T02:47:44.073Z,56
2023-05-01T02:48:00.241Z,56.61
2023-05-01T02:48:16.356Z,56.46
2023-05-01T02:48:32.467Z,56.09
2023-05-01T02:48:48.611Z,56.29
2023-05-01T02:49:04.740Z,56.26
2023-05-01T02:49:20.903Z,56.57
2023-05-01T02:49:37.054Z,56.55
2023-05-01T02:49:53.266Z,56.63
2023-05-01T02:50:09.340Z,56.72
2023-05-01T02:50:25.467Z,56.68
2023-05-01T02:50:41.675Z,56.37
2023-05-01T02:50:57.774Z,56.79
2023-05-01T02:51:13.920Z,56.84
2023-05-01T02:51:30.065Z,56.9
2023-05-01T02:51:46.228Z,56.55
2023-05-01T02:52:02.369Z,56.62
2023-05-01T02:52:18.500Z,56.6
2023-05-01T02:52:34.641Z,56.49
2023-05-01T02:52:50.779Z,56.56
2023-05-01T02:53:06.934Z,56.77
2023-05-01T02:53:23.102Z,56.79
2023-05-01T02:53:39.229Z,56.64
2023-05-01T02:53:55.386Z,56.43
2023-05-01T02:54:11.515Z,56.5
2023-05-01T02:54:27.658Z,56.67
2023-05-01T02:54:43.828Z,56.59
2023-05-01T02:54:59.980Z,56.54
2023-05-01T02:55:16.130Z,56.64
2023-05-01T02:55:32.241Z,56.69
2023-05-01T02:55:48.505Z,56.73
2023-05-01T02:56:04.540Z,56.7
2023-05-01T02:56:20.675Z,56.7
2023-05-01T02:56:36.869Z,57.04
2023-05-01T02:56:52.966Z,56.93
2023-05-01T02:57:09.122Z,57.01
2023-05-01T02:57:25.255Z,57.07
2023-05-01T02:57:41.402Z,56.94
2023-05-01T02:57:57.544Z,56.98
2023-05-01T02:58:13.700Z,56.99
2023-05-01T02:58:29.872Z,57.64
2023-05-01T02:58:45.995Z,57.64
2023-05-01T02:59:02.143Z,57.29
2023-05-01T02:59:18.295Z,57.44
2023-05-01T02:59:34.424Z,57.77
2023-05-01T02:59:50.606Z,57.58
2023-05-01T03:00:06.736Z,57.57
2023-05-01T03:00:22.879Z,57.41
2023-05-01T03:00:39.002Z,57.75
2023-05-01T03:00:55.196Z,57.48
2023-05-01T03:01:11.392Z,57.4
2023-05-01T03:01:27.476Z,57.41
2023-05-01T03:01:43.704Z,57.49
2023-05-01T03:01:59.748Z,57.38
2023-05-01T03:02:15.905Z,57.27
2023-05-01T03:02:32.084Z,57.62
2023-05-01T03:02:48.235Z,57.33
2023-05-01T03:03:04.346Z,57.19
2023-05-01T03:03:20.509Z,57.22
2023-05-01T03:03:36.595Z,57.38
2023-05-01T03:03:52.846Z,57.64
2023-05-01T03:04:08.957Z,57.24
2023-05-01T03:04:25.111Z,57.01
2023-05-01T03:04:41.262Z,57
2023-05-01T03:04:57.375Z,57.01
2023-05-01T03:05:13.468Z,57.04
2023-05-01T03:05:29.657Z,57.3
2023-05-01T03:05:45.866Z,57.19
2023-05-01T03:06:01.944Z,57.16
2023-05-01T03:06:18.102Z,57.17
2023-05-01T03:06:34.247Z,57.36
2023-05-01T03:06:50.418Z,57.29
2023-05-01T03:07:06.504Z,57.03
2023-05-01T03:07:22.629Z,57.02
2023-05-01T03:07:38.786Z,56.94
2023-05-01T03:07:54.964Z,57.06
2023-05-01T03:08:11.134Z,57.26
2023-05-01T03:08:27.228Z,57.24
2023-05-01T03:08:43.359Z,57.27
2023-05-01T03:08:59.519Z,57.24
2023-05-01T03:09:15.669Z,57.1
2023-05-01T03:09:31.801Z,57.19
2023-05-01T03:09:47.949Z,57.19
2023-05-01T03:10:04.138Z,57.35
2023-05-01T03:10:20.261Z,57.12
2023-05-01T03:10:36.406Z,57.4
2023-05-01T03:10:52.541Z,57.04
2023-05-01T03:11:08.709Z,57
2023-05-01T03:11:24.825Z,57.05
2023-05-01T03:11:40.975Z,57.26
2023-05-01T03:11:57.120Z,57.15
2023-05-01T03:12:13.318Z,57.17
2023-05-01T03:12:29.408Z,57.21
2023-05-01T03:12:45.555Z,57.38
2023-05-01T03:13:01.715Z,57.3
2023-05-01T03:13:17.862Z,57.28
2023-05-01T03:13:34.030Z,57.32
2023-05-01T03:13:50.131Z,57.35
2023-05-01T03:14:06.285Z,57.51
2023-05-01T03:14:22.473Z,57.56
2023-05-01T03:14:38.623Z,57.29
2023-05-01T03:14:54.722Z,57.1
2023-05-01T03:15:10.857Z,57.2
2023-05-01T03:15:27.026Z,57.89
2023-05-01T03:15:43.173Z,58.32
2023-05-01T03:15:59.340Z,57.8
2023-05-01T03:16:15.533Z,58.1
2023-05-01T03:16:31.624Z,58.44
2023-05-01T03:16:47.882Z,57.95
2023-05-01T03:17:03.884Z,57.77
2023-05-01T03:17:20.019Z,57.59
2023-05-01T03:17:36.219Z,57.41
2023-05-01T03:17:52.384Z,57.13
2023-05-01T03:18:08.493Z,57.27
2023-05-01T03:18:24.601Z,57.4
2023-05-01T03:18:40.747Z,57.24
2023-05-01T03:18:56.895Z,57.3
2023-05-01T03:19:13.054Z,57.51
2023-05-01T03:19:29.212Z,57.64
2023-05-01T03:19:45.362Z,57.9
2023-05-01T03:20:01.478Z,57.89
2023-05-01T03:20:17.644Z,57.61
2023-05-01T03:20:33.791Z,57.17
2023-05-01T03:20:49.911Z,56.79
2023-05-01T03:21:06.082Z,57.42
2023-05-01T03:21:22.193Z,57.03
2023-05-01T03:21:38.373Z,56.91
2023-05-01T03:21:54.513Z,56.96
2023-05-01T03:22:10.647Z,57.19
2023-05-01T03:22:26.814Z,56.87
2023-05-01T03:22:42.950Z,56.84
2023-05-01T03:22:59.090Z,56.84
2023-05-01T03:23:15.221Z,56.92
2023-05-01T03:23:31.363Z,57.05
2023-05-01T03:23:47.525Z,57.09
2023-05-01T03:24:03.717Z,57.16
2023-05-01T03:24:19.802Z,57.23
2023-05-01T03:24:36.147Z,56.92
2023-05-01T03:24:52.102Z,56.75
2023-05-01T03:25:08.252Z,56.76
2023-05-01T03:25:24.403Z,57.37
2023-05-01T03:25:40.548Z,57.76
2023-05-01T03:25:56.693Z,57.65
2023-05-01T03:26:12.869Z,57.63
2023-05-01T03:26:28.973Z,57.6
2023-05-01T03:26:45.152Z,57.88
2023-05-01T03:27:01.266Z,58.12
2023-05-01T03:27:17.425Z,58
2023-05-01T03:27:33.571Z,57.92
2023-05-01T03:27:49.707Z,58.13
2023-05-01T03:28:05.850Z,58.12
2023-05-01T03:28:21.977Z,58.11
2023-05-01T03:28:38.150Z,58.28
2023-05-01T03:28:54.279Z,58.21
2023-05-01T03:29:10.428Z,58.11
2023-05-01T03:29:26.593Z,58.24
2023-05-01T03:29:42.728Z,58.46